createdAt,value
2019-04-28T00:02:02.921Z,7.54
2019-04-28T00:04:32.125Z,7.66
2019-04-28T00:07:01.756Z,7.69
2019-04-28T00:09:31.384Z,7.64
2019-04-28T00:12:01.569Z,7.61
2019-04-28T00:14:29.332Z,7.52
2019-04-28T00:16:57.124Z,7.52
2019-04-28T00:19:26.170Z,7.49
2019-04-28T00:22:22.744Z,7.47
2019-04-28T00:24:58.216Z,7.43
2019-04-28T00:27:26.375Z,7.39
2019-04-28T00:29:54.002Z,7.40
2019-04-28T00:32:21.752Z,7.23
2019-04-28T00:34:51.133Z,7.24
2019-04-28T00:37:34.443Z,7.22
2019-04-28T00:40:02.300Z,7.15
2019-04-28T00:42:31.518Z,7.10
2019-04-28T00:45:01.444Z,7.11
2019-04-28T00:47:30.990Z,7.31
2019-04-28T00:49:59.122Z,7.51
2019-04-28T00:52:27.159Z,7.58
2019-04-28T00:54:54.779Z,7.52
2019-04-28T00:57:22.317Z,7.51
2019-04-28T00:59:56.797Z,7.68
2019-04-28T01:02:31.350Z,7.70
2019-04-28T01:05:01.257Z,7.70
2019-04-28T01:07:31.281Z,7.69
2019-04-28T01:09:58.868Z,7.78
2019-04-28T01:12:26.573Z,8.08
2019-04-28T01:14:55.477Z,8.09
2019-04-28T01:17:45.994Z,8.12
2019-04-28T01:20:14.878Z,8.06
2019-04-28T01:22:42.378Z,8.09
2019-04-28T01:25:10.664Z,8.16
2019-04-28T01:27:58.044Z,8.16
2019-04-28T01:30:51.334Z,8.36
2019-04-28T01:33:36.829Z,8.37
2019-04-28T01:36:04.941Z,8.32
2019-04-28T01:38:32.866Z,8.31
2019-04-28T01:41:01.592Z,8.26
2019-04-28T01:43:31.297Z,8.22
2019-04-28T01:46:00.191Z,7.99
2019-04-28T01:48:29.629Z,8.09
2019-04-28T01:50:59.805Z,8.09
2019-04-28T01:53:27.856Z,8.07
2019-04-28T01:55:55.890Z,8.01
2019-04-28T01:58:23.750Z,8.10
2019-04-28T02:00:51.721Z,8.10
2019-04-28T02:03:20.710Z,8.10
2019-04-28T02:05:50.149Z,8.05
2019-04-28T02:08:20.117Z,8.09
2019-04-28T02:10:49.999Z,8.05
2019-04-28T02:13:19.890Z,7.99
2019-04-28T02:15:49.903Z,7.93
2019-04-28T02:18:19.771Z,7.82
2019-04-28T02:20:53.369Z,7.75
2019-04-28T02:23:25.435Z,7.67
2019-04-28T02:25:53.503Z,7.66
2019-04-28T02:28:21.592Z,7.58
2019-04-28T02:30:53.554Z,7.60
2019-04-28T02:33:21.170Z,7.63
2019-04-28T02:35:51.116Z,7.54
2019-04-28T02:38:20.970Z,7.56
2019-04-28T02:40:50.422Z,7.39
2019-04-28T02:43:20.642Z,7.33
2019-04-28T02:45:51.074Z,7.19
2019-04-28T02:48:22.863Z,7.16
2019-04-28T02:51:03.186Z,7.14
2019-04-28T02:53:36.611Z,7.07
2019-04-28T02:56:04.447Z,7.22
2019-04-28T02:58:32.626Z,7.10
2019-04-28T03:01:10.729Z,6.98
2019-04-28T03:03:30.899Z,7.08
2019-04-28T03:06:01.465Z,6.97
2019-04-28T03:08:30.628Z,6.88
2019-04-28T03:11:01.036Z,6.89
2019-04-28T03:13:31.284Z,6.82
2019-04-28T03:16:01.643Z,6.76
2019-04-28T03:18:31.750Z,6.62
2019-04-28T03:21:03.613Z,6.61
2019-04-28T03:23:31.108Z,6.60
2019-04-28T03:26:08.172Z,6.57
2019-04-28T03:28:42.943Z,6.65
2019-04-28T03:32:09.591Z,6.56
2019-04-28T03:34:23.126Z,6.50
2019-04-28T03:36:51.711Z,6.40
2019-04-28T03:39:20.485Z,6.54
2019-04-28T03:41:50.220Z,6.50
2019-04-28T03:44:20.622Z,6.55
2019-04-28T03:46:52.174Z,6.53
2019-04-28T03:49:32.993Z,6.50
2019-04-28T03:52:01.891Z,6.62
2019-04-28T03:54:30.399Z,6.55
2019-04-28T03:57:01.117Z,6.51
2019-04-28T03:59:31.188Z,6.59
2019-04-28T04:02:02.895Z,6.58
2019-04-28T04:04:28.803Z,6.39
2019-04-28T04:06:56.483Z,6.71
2019-04-28T04:09:27.088Z,6.74
2019-04-28T04:12:21.178Z,6.91
2019-04-28T04:14:54.675Z,6.93
2019-04-28T04:17:45.352Z,7.16
2019-04-28T04:20:20.667Z,7.31
2019-04-28T04:22:51.226Z,7.45
2019-04-28T04:25:20.335Z,7.65
2019-04-28T04:27:50.083Z,7.66
2019-04-28T04:30:17.147Z,7.75
2019-04-28T04:32:44.777Z,7.83
2019-04-28T04:35:12.271Z,7.91
2019-04-28T04:37:40.737Z,7.97
2019-04-28T04:40:13.086Z,8.14
2019-04-28T04:42:40.601Z,8.19
2019-04-28T04:45:10.542Z,8.34
2019-04-28T04:47:40.642Z,8.48
2019-04-28T04:50:11.345Z,8.49
2019-04-28T04:52:40.256Z,8.51
2019-04-28T04:55:08.284Z,8.48
2019-04-28T04:57:36.501Z,8.52
2019-04-28T05:00:06.337Z,8.52
2019-04-28T05:02:55.410Z,8.58
2019-04-28T05:05:28.089Z,8.60
2019-04-28T05:07:55.673Z,8.60
2019-04-28T05:10:23.169Z,8.74
2019-04-28T05:12:51.818Z,8.77
2019-04-28T05:15:20.346Z,8.80
2019-04-28T05:17:50.018Z,8.76
2019-04-28T05:20:17.515Z,8.80
2019-04-28T05:22:51.368Z,8.76
2019-04-28T05:25:32.584Z,8.94
2019-04-28T05:28:02.959Z,9.06
2019-04-28T05:30:29.696Z,9.22
2019-04-28T05:32:57.548Z,9.45
2019-04-28T05:35:25.299Z,9.82
2019-04-28T05:37:53.296Z,9.99
2019-04-28T05:40:21.503Z,10.22
2019-04-28T05:43:00.933Z,10.45
2019-04-28T05:45:29.682Z,10.70
2019-04-28T05:47:59.440Z,11.01
2019-04-28T05:50:39.960Z,11.31
2019-04-28T05:53:30.073Z,11.49
2019-04-28T05:56:23.728Z,11.73
2019-04-28T05:58:58.255Z,11.89
2019-04-28T06:01:33.034Z,12.07
2019-04-28T06:04:01.124Z,12.17
2019-04-28T06:06:32.290Z,12.22
2019-04-28T06:09:22.469Z,12.32
2019-04-28T06:11:49.999Z,12.32
2019-04-28T06:14:19.778Z,12.41
2019-04-28T06:16:47.128Z,12.63
2019-04-28T06:19:14.886Z,12.70
2019-04-28T06:21:42.411Z,13.04
2019-04-28T06:24:10.096Z,13.23
2019-04-28T06:26:37.731Z,13.45
2019-04-28T06:29:05.463Z,13.72
2019-04-28T06:31:33.112Z,13.64
2019-04-28T06:34:01.837Z,13.59
2019-04-28T06:36:29.452Z,13.75
2019-04-28T06:38:57.089Z,13.95
2019-04-28T06:41:24.686Z,14.03
2019-04-28T06:43:52.351Z,14.09
2019-04-28T06:46:20.029Z,14.30
2019-04-28T06:48:47.734Z,14.61
2019-04-28T06:51:15.455Z,14.78
2019-04-28T06:53:44.711Z,14.73
2019-04-28T06:56:12.430Z,14.73
2019-04-28T06:58:40.153Z,14.64
2019-04-28T07:01:07.773Z,14.60
2019-04-28T07:03:35.853Z,14.63
2019-04-28T07:06:03.890Z,14.52
2019-04-28T07:08:31.936Z,14.64
2019-04-28T07:10:59.682Z,14.40
2019-04-28T07:13:27.393Z,14.44
2019-04-28T07:15:55.164Z,14.64
2019-04-28T07:18:22.803Z,14.48
2019-04-28T07:20:57.191Z,14.51
2019-04-28T07:23:24.878Z,14.60
2019-04-28T07:25:52.607Z,14.48
2019-04-28T07:28:20.245Z,14.55
2019-04-28T07:30:49.507Z,14.80
2019-04-28T07:33:17.243Z,14.86
2019-04-28T07:35:45.009Z,14.96
2019-04-28T07:38:12.660Z,15.26
2019-04-28T07:40:40.327Z,15.30
2019-04-28T07:43:08.196Z,15.21
2019-04-28T07:45:36.304Z,15.15
2019-04-28T07:48:04.233Z,15.20
2019-04-28T07:50:31.898Z,15.15
2019-04-28T07:53:27.650Z,15.10
2019-04-28T07:55:55.176Z,15.12
2019-04-28T07:58:22.816Z,14.94
2019-04-28T08:00:50.787Z,14.96
2019-04-28T08:03:18.570Z,14.94
2019-04-28T08:05:46.217Z,14.89
2019-04-28T08:08:13.849Z,14.82
2019-04-28T08:10:41.535Z,14.66
2019-04-28T08:13:10.225Z,14.68
2019-04-28T08:15:37.864Z,14.47
2019-04-28T08:18:05.543Z,14.45
2019-04-28T08:20:33.503Z,14.37
2019-04-28T08:23:01.208Z,14.27
2019-04-28T08:25:28.895Z,14.02
2019-04-28T08:27:56.532Z,14.26
2019-04-28T08:30:24.150Z,14.51
2019-04-28T08:33:02.903Z,14.72
2019-04-28T08:35:30.501Z,15.13
2019-04-28T08:37:58.131Z,15.61
2019-04-28T08:40:25.733Z,15.81
2019-04-28T08:42:53.254Z,16.25
2019-04-28T08:45:20.792Z,16.84
2019-04-28T08:47:48.442Z,17.29
2019-04-28T08:50:16.155Z,18.04
2019-04-28T08:52:43.793Z,19.57
2019-04-28T08:55:11.361Z,21.41
2019-04-28T08:57:38.963Z,22.16
2019-04-28T09:00:07.485Z,21.46
2019-04-28T09:02:35.271Z,22.84
2019-04-28T09:05:02.832Z,22.49
2019-04-28T09:07:30.474Z,21.96
2019-04-28T09:09:58.073Z,21.10
2019-04-28T09:12:25.679Z,20.50
2019-04-28T09:14:53.212Z,19.97
2019-04-28T09:17:20.737Z,19.50
2019-04-28T09:19:48.375Z,18.89
2019-04-28T09:22:15.901Z,18.52
2019-04-28T09:24:43.414Z,18.23
2019-04-28T09:27:11.094Z,18.10
2019-04-28T09:29:38.590Z,18.16
2019-04-28T09:32:06.151Z,18.09
2019-04-28T09:34:33.658Z,18.45
2019-04-28T09:37:01.333Z,18.73
2019-04-28T09:39:51.221Z,19.32
2019-04-28T09:42:47.962Z,19.34
2019-04-28T09:45:20.975Z,19.47
2019-04-28T09:47:48.654Z,19.75
2019-04-28T09:50:17.300Z,19.85
2019-04-28T09:52:45.017Z,19.77
2019-04-28T09:55:13.048Z,19.97
2019-04-28T09:57:40.753Z,19.85
2019-04-28T10:00:09.445Z,19.75
2019-04-28T10:02:37.308Z,19.90
2019-04-28T10:05:05.433Z,20.03
2019-04-28T10:07:33.168Z,19.99
2019-04-28T10:10:00.851Z,20.01
2019-04-28T10:12:28.439Z,19.89
2019-04-28T10:14:56.164Z,19.55
2019-04-28T10:17:23.839Z,19.31
2019-04-28T10:19:51.424Z,19.53
2019-04-28T10:22:19.072Z,19.43
2019-04-28T10:24:46.839Z,19.55
2019-04-28T10:27:14.556Z,19.62
2019-04-28T10:29:42.277Z,19.47
2019-04-28T10:32:09.979Z,19.08
2019-04-28T10:34:37.601Z,18.86
2019-04-28T10:37:05.310Z,18.87
2019-04-28T10:39:42.429Z,18.58
2019-04-28T10:42:12.609Z,18.52
2019-04-28T10:44:43.072Z,18.58
2019-04-28T10:47:10.731Z,18.68
2019-04-28T10:49:38.323Z,18.68
2019-04-28T10:52:06.928Z,18.63
2019-04-28T10:54:34.528Z,18.73
2019-04-28T10:57:03.780Z,18.97
2019-04-28T10:59:31.442Z,18.85
2019-04-28T11:01:59.062Z,18.47
2019-04-28T11:04:44.846Z,18.48
2019-04-28T11:07:13.321Z,18.19
2019-04-28T11:09:45.617Z,18.24
2019-04-28T11:12:19.375Z,18.18
2019-04-28T11:14:47.012Z,18.21
2019-04-28T11:17:15.488Z,18.37
2019-04-28T11:19:43.113Z,18.75
2019-04-28T11:22:10.887Z,18.68
2019-04-28T11:24:40.518Z,19.87
2019-04-28T11:27:08.814Z,21.57
2019-04-28T11:29:36.405Z,23.37
2019-04-28T11:32:04.340Z,24.22
2019-04-28T11:34:49.870Z,25.14
2019-04-28T11:37:17.527Z,26.20
2019-04-28T11:39:45.342Z,24.74
2019-04-28T11:42:13.314Z,25.25
2019-04-28T11:44:40.917Z,26.47
2019-04-28T11:47:10.680Z,25.60
2019-04-28T11:49:38.472Z,23.97
2019-04-28T11:52:06.350Z,24.25
2019-04-28T11:54:34.024Z,23.05
2019-04-28T11:57:01.987Z,24.48
2019-04-28T11:59:29.713Z,26.56
2019-04-28T12:01:57.444Z,27.81
2019-04-28T12:04:25.237Z,27.54
2019-04-28T12:06:52.980Z,25.98
2019-04-28T12:09:43.752Z,25.01
2019-04-28T12:12:25.377Z,24.24
2019-04-28T12:15:00.526Z,24.23
2019-04-28T12:17:45.776Z,24.93
2019-04-28T12:20:17.086Z,26.43
2019-04-28T12:22:44.656Z,26.46
2019-04-28T12:25:12.347Z,26.08
2019-04-28T12:27:39.910Z,24.56
2019-04-28T12:30:07.628Z,23.98
2019-04-28T12:32:35.232Z,23.52
2019-04-28T12:35:03.124Z,23.32
2019-04-28T12:37:30.883Z,23.39
2019-04-28T12:39:58.511Z,24.12
2019-04-28T12:42:26.193Z,23.47
2019-04-28T12:44:53.860Z,23.23
2019-04-28T12:47:21.405Z,23.83
2019-04-28T12:50:03.381Z,25.05
2019-04-28T12:52:31.533Z,25.65
2019-04-28T12:55:01.632Z,24.81
2019-04-28T12:57:29.678Z,24.13
2019-04-28T13:00:05.534Z,22.93
2019-04-28T13:02:53.270Z,22.06
2019-04-28T13:05:21.291Z,21.77
2019-04-28T13:07:49.017Z,21.98
2019-04-28T13:10:16.825Z,22.43
2019-04-28T13:12:44.627Z,22.19
2019-04-28T13:15:12.600Z,22.55
2019-04-28T13:17:42.835Z,22.37
2019-04-28T13:20:10.760Z,21.93
2019-04-28T13:22:38.486Z,21.28
2019-04-28T13:25:06.903Z,21.10
2019-04-28T13:27:34.698Z,22.00
2019-04-28T13:30:02.660Z,22.54
2019-04-28T13:32:30.275Z,22.12
2019-04-28T13:34:57.983Z,22.12
2019-04-28T13:37:25.673Z,22.64
2019-04-28T13:40:03.304Z,22.32
2019-04-28T13:42:30.954Z,22.32
2019-04-28T13:45:02.402Z,22.48
2019-04-28T13:47:30.008Z,22.34
2019-04-28T13:50:03.189Z,21.34
2019-04-28T13:52:30.954Z,21.34
2019-04-28T13:55:36.618Z,21.30
2019-04-28T13:58:04.549Z,21.26
2019-04-28T14:00:53.248Z,21.13
2019-04-28T14:03:43.283Z,21.06
2019-04-28T14:06:13.295Z,21.12
2019-04-28T14:08:41.103Z,21.37
2019-04-28T14:11:08.970Z,21.12
2019-04-28T14:13:36.590Z,21.19
2019-04-28T14:16:05.675Z,21.54
2019-04-28T14:18:33.335Z,21.14
2019-04-28T14:21:00.912Z,20.84
2019-04-28T14:23:28.484Z,20.81
2019-04-28T14:25:56.042Z,20.77
2019-04-28T14:28:23.751Z,20.86
2019-04-28T14:30:51.428Z,21.54
2019-04-28T14:33:19.023Z,21.21
2019-04-28T14:35:46.863Z,20.80
2019-04-28T14:38:15.675Z,20.67
2019-04-28T14:40:43.443Z,20.74
2019-04-28T14:43:11.112Z,20.68
2019-04-28T14:45:38.949Z,20.59
2019-04-28T14:48:08.280Z,20.34
2019-04-28T14:50:35.936Z,20.18
2019-04-28T14:53:03.718Z,20.31
2019-04-28T14:55:31.514Z,20.25
2019-04-28T14:57:59.176Z,19.69
2019-04-28T15:00:35.424Z,19.80
2019-04-28T15:03:06.504Z,19.37
2019-04-28T15:06:02.616Z,19.41
2019-04-28T15:08:49.798Z,19.41
2019-04-28T15:11:27.918Z,19.18
2019-04-28T15:13:55.680Z,18.93
2019-04-28T15:16:23.399Z,18.73
2019-04-28T15:18:50.966Z,18.66
2019-04-28T15:21:18.634Z,18.54
2019-04-28T15:23:46.224Z,18.23
2019-04-28T15:26:13.915Z,18.22
2019-04-28T15:28:41.484Z,18.06
2019-04-28T15:31:09.095Z,18.19
2019-04-28T15:33:36.713Z,18.25
2019-04-28T15:36:04.454Z,18.27
2019-04-28T15:38:32.062Z,18.14
2019-04-28T15:40:59.749Z,18.16
2019-04-28T15:43:27.392Z,18.18
2019-04-28T15:45:55.101Z,18.20
2019-04-28T15:48:22.852Z,18.03
2019-04-28T15:50:50.643Z,18.03
2019-04-28T15:53:18.362Z,17.92
2019-04-28T15:55:59.667Z,18.21
2019-04-28T15:58:37.716Z,18.07
2019-04-28T16:01:05.631Z,17.90
2019-04-28T16:03:33.395Z,17.75
2019-04-28T16:06:01.048Z,17.54
2019-04-28T16:08:28.877Z,17.41
2019-04-28T16:10:56.646Z,17.20
2019-04-28T16:13:24.502Z,17.14
2019-04-28T16:15:52.228Z,16.94
2019-04-28T16:18:19.862Z,16.95
2019-04-28T16:20:47.402Z,16.89
2019-04-28T16:23:15.122Z,16.45
2019-04-28T16:25:42.667Z,16.59
2019-04-28T16:28:10.386Z,16.45
2019-04-28T16:30:37.937Z,16.20
2019-04-28T16:33:05.570Z,16.25
2019-04-28T16:35:33.145Z,16.14
2019-04-28T16:38:00.810Z,15.90
2019-04-28T16:40:33.431Z,15.93
2019-04-28T16:43:05.019Z,15.81
2019-04-28T16:45:32.622Z,15.80
2019-04-28T16:48:00.265Z,15.76
2019-04-28T16:50:27.901Z,15.70
2019-04-28T16:52:57.141Z,15.73
2019-04-28T16:55:31.670Z,15.58
2019-04-28T16:58:21.759Z,15.43
2019-04-28T17:01:18.242Z,15.40
2019-04-28T17:03:46.001Z,15.74
2019-04-28T17:06:13.589Z,15.61
2019-04-28T17:08:41.124Z,15.49
2019-04-28T17:11:08.810Z,15.67
2019-04-28T17:13:36.334Z,15.58
2019-04-28T17:16:04.031Z,15.52
2019-04-28T17:18:31.669Z,15.57
2019-04-28T17:20:59.204Z,15.44
2019-04-28T17:23:27.213Z,15.37
2019-04-28T17:25:54.793Z,15.08
2019-04-28T17:28:22.309Z,15.01
2019-04-28T17:30:50.055Z,14.91
2019-04-28T17:33:17.636Z,14.82
2019-04-28T17:35:45.256Z,14.68
2019-04-28T17:38:12.748Z,14.47
2019-04-28T17:40:40.780Z,14.43
2019-04-28T17:43:08.616Z,14.36
2019-04-28T17:45:36.240Z,14.33
2019-04-28T17:48:13.219Z,14.18
2019-04-28T17:50:40.862Z,14.18
2019-04-28T17:53:08.614Z,14.07
2019-04-28T17:55:36.741Z,14.09
2019-04-28T17:58:04.322Z,14.02
2019-04-28T18:00:50.163Z,14.03
2019-04-28T18:03:31.551Z,14.00
2019-04-28T18:06:17.517Z,13.97
2019-04-28T18:08:37.957Z,13.76
2019-04-28T18:11:05.636Z,13.68
2019-04-28T18:13:33.244Z,13.52
2019-04-28T18:16:26.797Z,13.57
2019-04-28T18:19:03.918Z,13.52
2019-04-28T18:21:31.700Z,13.52
2019-04-28T18:23:59.249Z,13.57
2019-04-28T18:26:26.945Z,13.32
2019-04-28T18:28:54.642Z,13.43
2019-04-28T18:31:36.479Z,13.42
2019-04-28T18:34:22.443Z,13.39
2019-04-28T18:37:03.343Z,13.40
2019-04-28T18:39:56.670Z,13.38
2019-04-28T18:42:50.919Z,13.49
2019-04-28T18:45:18.679Z,13.49
2019-04-28T18:47:46.281Z,13.50
2019-04-28T18:50:14.235Z,13.57
2019-04-28T18:52:41.796Z,13.54
2019-04-28T18:55:09.567Z,13.47
2019-04-28T18:57:37.248Z,13.36
2019-04-28T19:00:05.704Z,13.32
2019-04-28T19:02:45.602Z,13.36
2019-04-28T19:05:13.458Z,13.11
2019-04-28T19:08:15.379Z,13.11
2019-04-28T19:11:06.579Z,13.00
2019-04-28T19:13:37.989Z,13.03
2019-04-28T19:16:43.075Z,12.93
2019-04-28T19:19:11.605Z,12.87
2019-04-28T19:21:41.581Z,12.85
2019-04-28T19:24:09.188Z,12.88
2019-04-28T19:26:36.845Z,12.90
2019-04-28T19:29:04.447Z,12.89
2019-04-28T19:31:32.117Z,12.82
2019-04-28T19:33:59.733Z,12.86
2019-04-28T19:36:27.853Z,12.79
2019-04-28T19:39:02.900Z,12.94
2019-04-28T19:41:25.159Z,12.98
2019-04-28T19:43:52.813Z,12.91
2019-04-28T19:46:20.599Z,12.82
2019-04-28T19:48:48.260Z,12.84
2019-04-28T19:51:30.833Z,12.81
2019-04-28T19:53:47.516Z,12.78
2019-04-28T19:56:29.162Z,12.71
2019-04-28T19:59:03.074Z,12.78
2019-04-28T20:01:30.958Z,12.81
2019-04-28T20:03:58.634Z,12.82
2019-04-28T20:06:26.463Z,12.81
2019-04-28T20:08:54.261Z,12.84
2019-04-28T20:11:22.121Z,12.82
2019-04-28T20:13:49.864Z,12.66
2019-04-28T20:16:17.618Z,12.46
2019-04-28T20:18:45.298Z,12.40
2019-04-28T20:21:13.097Z,12.26
2019-04-28T20:23:40.964Z,12.24
2019-04-28T20:26:08.670Z,12.12
2019-04-28T20:28:36.673Z,12.08
2019-04-28T20:31:04.548Z,12.00
2019-04-28T20:33:32.418Z,11.87
2019-04-28T20:36:07.562Z,11.78
2019-04-28T20:38:35.239Z,11.76
2019-04-28T20:41:11.817Z,11.59
2019-04-28T20:43:39.667Z,11.54
2019-04-28T20:46:07.494Z,11.53
2019-04-28T20:48:35.181Z,11.42
2019-04-28T20:51:03.126Z,11.34
2019-04-28T20:53:30.905Z,11.37
2019-04-28T20:55:58.778Z,11.17
2019-04-28T20:58:26.517Z,11.24
2019-04-28T21:00:54.525Z,11.17
2019-04-28T21:03:22.291Z,11.12
2019-04-28T21:05:50.053Z,11.13
2019-04-28T21:08:17.779Z,11.16
2019-04-28T21:10:45.650Z,11.13
2019-04-28T21:13:14.499Z,11.18
2019-04-28T21:15:42.238Z,11.19
2019-04-28T21:18:11.073Z,11.08
2019-04-28T21:20:40.150Z,11.12
2019-04-28T21:23:08.188Z,11.14
2019-04-28T21:25:36.927Z,11.02
2019-04-28T21:28:05.236Z,11.01
2019-04-28T21:30:33.241Z,11.02
2019-04-28T21:33:00.982Z,11.08
2019-04-28T21:35:28.734Z,11.07
2019-04-28T21:37:56.551Z,10.97
2019-04-28T21:40:24.885Z,10.96
2019-04-28T21:43:10.718Z,10.88
2019-04-28T21:46:00.693Z,10.90
2019-04-28T21:48:49.802Z,10.77
2019-04-28T21:51:17.479Z,10.68
2019-04-28T21:53:45.183Z,10.67
2019-04-28T21:56:12.861Z,10.57
2019-04-28T21:58:41.103Z,10.61
2019-04-28T22:01:12.325Z,10.53
2019-04-28T22:03:40.385Z,10.52
2019-04-28T22:06:08.390Z,10.44
2019-04-28T22:08:36.404Z,10.41
2019-04-28T22:11:04.410Z,10.41
2019-04-28T22:13:32.472Z,10.27
2019-04-28T22:16:00.226Z,10.23
2019-04-28T22:18:27.999Z,10.16
2019-04-28T22:20:56.963Z,10.18
2019-04-28T22:23:31.430Z,10.14
2019-04-28T22:25:59.313Z,10.09
2019-04-28T22:28:27.019Z,9.97
2019-04-28T22:30:54.795Z,9.92
2019-04-28T22:33:22.568Z,9.88
2019-04-28T22:35:50.495Z,9.82
2019-04-28T22:38:18.186Z,9.80
2019-04-28T22:40:46.034Z,9.81
2019-04-28T22:43:13.745Z,9.78
2019-04-28T22:45:42.479Z,9.83
2019-04-28T22:48:12.887Z,9.84
2019-04-28T22:50:44.090Z,9.84
2019-04-28T22:53:13.213Z,9.80
2019-04-28T22:55:50.441Z,9.88
2019-04-28T22:58:44.008Z,9.80
2019-04-28T23:01:40.527Z,9.78
2019-04-28T23:04:30.911Z,9.80
2019-04-28T23:06:58.634Z,9.74
2019-04-28T23:09:26.574Z,9.76
2019-04-28T23:11:54.306Z,9.79
2019-04-28T23:14:21.891Z,9.73
2019-04-28T23:16:49.507Z,9.65
2019-04-28T23:19:19.303Z,9.54
2019-04-28T23:22:09.659Z,9.59
2019-04-28T23:24:37.255Z,9.49
2019-04-28T23:27:07.084Z,9.43
2019-04-28T23:29:34.741Z,9.45
2019-04-28T23:32:02.735Z,9.49
2019-04-28T23:34:30.329Z,9.46
2019-04-28T23:36:58.087Z,9.33
2019-04-28T23:39:25.875Z,9.37
2019-04-28T23:42:01.724Z,9.31
2019-04-28T23:44:29.421Z,9.28
2019-04-28T23:46:58.289Z,9.22
2019-04-28T23:49:26.909Z,9.19
2019-04-28T23:52:04.325Z,9.31
2019-04-28T23:54:32.431Z,9.34
2019-04-28T23:57:00.172Z,9.26
2019-04-28T23:59:28.044Z,9.25
